Terminal Aerodrome Forecast
Issued by NWS Wakefield, VA

Home | Current Version | Previous Version | Text Only | Print | Product List | Glossary On
Versions: 1 2 3 4 5 6 7 8 9 10 11 12 13 14 15
000
FTUS41 KAKQ 230109 AAA
TAFRIC
TAF AMD
KRIC 230109Z 2301/2324 19004KT 4SM BR OVC050
      TEMPO 2301/2305 OVC025
     FM230500 VRB03KT 3SM BR OVC015
     FM230900 VRB03KT 2SM BR OVC008
     FM231300 20004KT P6SM OVC040
     FM231800 20007KT P6SM SCT120=

USA.gov is the U.S. government's official web portal to all federal, state and local government web resources and services.